Time;durP1;ratioP1;P1;durP2;ratioP2;P2;SDS_P1;SDS_P2;PMS_P1;PMS_P2;Temp;Humidity;BMP_temperature;BMP_pressure;BME280_temperature;BME280_humidity;BME280_pressure;Samples;Min_cycle;Max_cycle;Signal;HPM_P1;HPM_P2
2022/09/05 00:02:05;;;;;;;7.20;4.00;;;;;;;;;;5096567;28;20048;-73
2022/09/05 00:04:38;;;;;;;8.05;3.80;;;;;;;;;;5103453;28;20029;-74
2022/09/05 00:07:12;;;;;;;5.78;3.65;;;;;;;;;;5091338;28;20049;-73
2022/09/05 00:10:18;;;;;;;7.03;3.63;;;;;;;;;;5099934;28;20048;-73
2022/09/05 00:12:46;;;;;;;7.75;3.65;;;;;;;;;;5094610;28;20057;-72
2022/09/05 00:15:34;;;;;;;6.35;3.67;;;;;;;;;;5100239;28;20068;-72
2022/09/05 00:18:21;;;;;;;6.95;3.60;;;;;;;;;;5097044;28;20051;-73
2022/09/05 00:21:08;;;;;;;6.40;3.60;;;;;;;;;;5094620;28;20041;-72
2022/09/05 00:24:02;;;;;;;6.97;3.78;;;;;;;;;;5093078;28;20130;-73
2022/09/05 00:26:58;;;;;;;8.43;3.90;;;;;;;;;;5093334;28;20029;-73
2022/09/05 00:29:31;;;;;;;7.13;3.78;;;;;;;;;;5091156;28;20049;-72
2022/09/05 00:32:28;;;;;;;6.88;3.72;;;;;;;;;;5102177;28;20047;-73
2022/09/05 00:35:14;;;;;;;10.50;4.18;;;;;;;;;;5093472;28;20057;-73
2022/09/05 00:37:44;;;;;;;7.55;3.60;;;;;;;;;;5095992;28;20041;-74
2022/09/05 00:40:13;;;;;;;12.25;4.20;;;;;;;;;;5099594;28;20052;-72
2022/09/05 00:42:47;;;;;;;9.10;3.95;;;;;;;;;;5095007;28;20055;-73
2022/09/05 00:45:16;;;;;;;6.38;3.88;;;;;;;;;;5092116;28;21041;-72
2022/09/05 00:47:48;;;;;;;6.57;3.90;;;;;;;;;;5095229;28;20053;-72
2022/09/05 00:50:38;;;;;;;6.97;3.58;;;;;;;;;;5103525;28;20036;-73
2022/09/05 00:53:13;;;;;;;5.50;3.58;;;;;;;;;;5095430;28;20060;-73
2022/09/05 00:55:40;;;;;;;11.10;3.78;;;;;;;;;;5094498;28;20056;-74
2022/09/05 00:58:19;;;;;;;8.73;3.45;;;;;;;;;;5096792;28;20044;-72
2022/09/05 01:00:52;;;;;;;6.13;3.35;;;;;;;;;;5100667;28;20049;-72
2022/09/05 01:03:19;;;;;;;;;;;;;;;;;;5095849;28;20060;-72
2022/09/05 01:05:59;;;;;;;6.78;3.50;;;;;;;;;;5096163;28;43287;-72
2022/09/05 01:08:46;;;;;;;5.90;3.83;;;;;;;;;;5102162;28;20044;-72
2022/09/05 01:11:31;;;;;;;10.65;3.70;;;;;;;;;;5096209;28;20055;-73
2022/09/05 01:14:02;;;;;;;6.25;3.63;;;;;;;;;;5093394;28;20037;-74
2022/09/05 01:16:52;;;;;;;5.28;3.60;;;;;;;;;;5096533;28;20037;-73
2022/09/05 01:19:31;;;;;;;7.65;3.50;;;;;;;;;;5101040;28;20072;-72
2022/09/05 01:21:58;;;;;;;7.47;3.72;;;;;;;;;;5100189;28;20105;-72
2022/09/05 01:24:31;;;;;;;7.07;4.10;;;;;;;;;;5102029;28;20037;-72
2022/09/05 01:27:17;;;;;;;5.68;3.83;;;;;;;;;;5082593;28;20052;-72
2022/09/05 01:29:51;;;;;;;5.22;3.58;;;;;;;;;;5096994;28;20122;-75
2022/09/05 01:32:41;;;;;;;4.20;3.20;;;;;;;;;;5098349;28;20110;-71
2022/09/05 01:35:32;;;;;;;8.10;3.70;;;;;;;;;;5096288;28;20049;-74
2022/09/05 01:38:10;;;;;;;5.25;3.30;;;;;;;;;;5100689;28;20052;-74
2022/09/05 01:40:37;;;;;;;9.48;3.58;;;;;;;;;;5094171;28;20061;-78
2022/09/05 01:43:14;;;;;;;5.32;3.38;;;;;;;;;;5088755;28;20090;-74
2022/09/05 01:45:46;;;;;;;6.82;3.63;;;;;;;;;;5093860;28;20072;-74
2022/09/05 01:48:29;;;;;;;4.35;3.40;;;;;;;;;;5093023;28;20068;-75
2022/09/05 01:51:02;;;;;;;7.63;3.60;;;;;;;;;;5094004;28;20196;-72
2022/09/05 01:53:32;;;;;;;4.78;3.47;;;;;;;;;;5100233;28;20125;-74
2022/09/05 01:56:05;;;;;;;8.68;3.47;;;;;;;;;;5100957;28;20072;-74
2022/09/05 01:58:51;;;;;;;4.60;3.40;;;;;;;;;;5088306;28;20037;-75
2022/09/05 02:01:24;;;;;;;7.43;3.50;;;;;;;;;;5086702;28;20132;-74
2022/09/05 02:04:17;;;;;;;5.80;3.88;;;;;;;;;;5091953;28;20052;-74
2022/09/05 02:06:56;;;;;;;5.63;3.20;;;;;;;;;;5090097;28;20048;-73
2022/09/05 02:10:02;;;;;;;5.93;3.72;;;;;;;;;;5093496;28;20060;-73
2022/09/05 02:12:44;;;;;;;7.07;3.63;;;;;;;;;;5094885;28;20823;-73
2022/09/05 02:15:37;;;;;;;6.53;3.85;;;;;;;;;;5090144;28;20052;-73
2022/09/05 02:18:06;;;;;;;11.23;3.90;;;;;;;;;;5079509;28;20084;-73
2022/09/05 02:20:42;;;;;;;9.18;3.90;;;;;;;;;;5090653;28;20047;-74
2022/09/05 02:23:19;;;;;;;7.45;4.10;;;;;;;;;;5099826;28;20131;-74
2022/09/05 02:26:11;;;;;;;7.68;4.22;;;;;;;;;;5092296;28;20072;-73
2022/09/05 02:28:57;;;;;;;8.70;4.20;;;;;;;;;;5096746;28;20052;-73
2022/09/05 02:31:43;;;;;;;7.13;3.65;;;;;;;;;;5094152;28;20927;-73
2022/09/05 02:34:15;;;;;;;7.18;4.20;;;;;;;;;;5091625;28;20079;-74
2022/09/05 02:36:48;;;;;;;5.38;3.90;;;;;;;;;;5094244;28;20100;-73
2022/09/05 02:39:15;;;;;;;;;;;;;;;;;;5093125;28;20063;-73
2022/09/05 02:42:21;;;;;;;9.15;4.30;;;;;;;;;;5090405;28;19931;-74
2022/09/05 02:45:13;;;;;;;9.35;4.47;;;;;;;;;;5091947;28;20057;-73
2022/09/05 02:48:20;;;;;;;11.50;4.45;;;;;;;;;;5097151;28;20044;-74
2022/09/05 02:50:59;;;;;;;10.75;4.00;;;;;;;;;;5097260;28;20056;-74
2022/09/05 02:53:51;;;;;;;7.35;4.53;;;;;;;;;;5086536;28;21260;-73
2022/09/05 02:56:44;;;;;;;6.82;4.40;;;;;;;;;;5088520;28;20105;-74
2022/09/05 02:59:42;;;;;;;6.50;4.32;;;;;;;;;;5091770;28;20048;-73
2022/09/05 03:02:13;;;;;;;7.88;4.50;;;;;;;;;;5094426;28;20049;-73
2022/09/05 03:04:52;;;;;;;;;;;;;;;;;;5094919;28;20041;-72
2022/09/05 03:07:30;;;;;;;7.45;4.25;;;;;;;;;;5087049;28;44551;-74
2022/09/05 03:10:17;;;;;;;8.82;4.82;;;;;;;;;;5092368;28;20131;-74
2022/09/05 03:13:13;;;;;;;11.65;4.18;;;;;;;;;;5061369;28;20060;-73
2022/09/05 03:15:53;;;;;;;9.07;4.45;;;;;;;;;;5081667;28;20037;-73
2022/09/05 03:18:26;;;;;;;8.32;3.80;;;;;;;;;;5095767;28;20053;-73
2022/09/05 03:21:02;;;;;;;7.88;4.20;;;;;;;;;;5092493;28;20049;-73
2022/09/05 03:23:48;;;;;;;9.77;4.40;;;;;;;;;;5093180;28;20510;-73
2022/09/05 03:26:31;;;;;;;8.77;4.18;;;;;;;;;;5092445;28;20755;-74
2022/09/05 03:28:58;;;;;;;6.40;4.60;;;;;;;;;;5094473;28;20033;-74
2022/09/05 03:31:25;;;;;;;12.65;4.35;;;;;;;;;;5086853;28;20045;-73
2022/09/05 03:33:55;;;;;;;10.18;4.50;;;;;;;;;;5102785;28;20052;-73
2022/09/05 03:36:43;;;;;;;6.90;4.38;;;;;;;;;;5097823;28;20037;-73
2022/09/05 03:39:10;;;;;;;6.75;4.68;;;;;;;;;;5082891;28;20104;-73
2022/09/05 03:41:49;;;;;;;8.32;4.70;;;;;;;;;;5093418;28;20044;-73
2022/09/05 03:44:31;;;;;;;8.88;4.80;;;;;;;;;;5092134;28;20052;-74
2022/09/05 03:47:17;;;;;;;5.80;3.97;;;;;;;;;;5090737;28;20054;-74
2022/09/05 03:49:44;;;;;;;9.60;4.60;;;;;;;;;;5096763;28;20055;-73
2022/09/05 03:52:44;;;;;;;11.20;4.43;;;;;;;;;;5093968;28;20064;-74
2022/09/05 03:55:43;;;;;;;8.10;4.15;;;;;;;;;;5097980;28;20053;-74
2022/09/05 03:58:50;;;;;;;8.48;4.05;;;;;;;;;;5098582;28;20041;-75
2022/09/05 04:01:51;;;;;;;7.20;4.25;;;;;;;;;;5099724;28;20045;-75
2022/09/05 04:04:58;;;;;;;11.30;4.45;;;;;;;;;;5098184;28;20041;-75
2022/09/05 04:07:47;;;;;;;5.80;4.40;;;;;;;;;;5096481;28;20048;-73
2022/09/05 04:10:34;;;;;;;7.75;4.72;;;;;;;;;;5097466;28;20052;-73
2022/09/05 04:13:05;;;;;;;9.85;4.60;;;;;;;;;;5102563;28;20055;-73
2022/09/05 04:15:36;;;;;;;9.10;5.57;;;;;;;;;;5100192;28;20053;-74
2022/09/05 04:18:11;;;;;;;6.65;4.70;;;;;;;;;;5092155;28;20045;-74
2022/09/05 04:20:44;;;;;;;7.20;5.05;;;;;;;;;;5090221;28;20080;-74
2022/09/05 04:23:34;;;;;;;8.73;5.00;;;;;;;;;;5100042;28;20045;-73
2022/09/05 04:26:05;;;;;;;10.55;5.15;;;;;;;;;;5096528;28;20850;-73
2022/09/05 04:28:53;;;;;;;8.20;4.95;;;;;;;;;;5093741;28;20088;-74
2022/09/05 04:31:20;;;;;;;10.93;5.55;;;;;;;;;;5098641;28;20045;-73
2022/09/05 04:33:59;;;;;;;13.10;5.78;;;;;;;;;;5099489;28;20052;-74
2022/09/05 04:36:28;;;;;;;10.52;5.78;;;;;;;;;;5103178;28;20050;-74
2022/09/05 04:39:07;;;;;;;6.00;4.07;;;;;;;;;;5094341;28;20155;-73
2022/09/05 04:41:39;;;;;;;8.82;5.70;;;;;;;;;;5098472;28;20049;-74
2022/09/05 04:44:09;;;;;;;8.80;5.53;;;;;;;;;;5092624;28;20045;-73
2022/09/05 04:46:39;;;;;;;8.77;5.57;;;;;;;;;;5095181;28;20058;-73
2022/09/05 04:49:21;;;;;;;13.23;5.35;;;;;;;;;;5097848;28;21038;-74
2022/09/05 04:52:09;;;;;;;9.32;5.28;;;;;;;;;;5080425;28;20053;-74
2022/09/05 04:54:47;;;;;;;10.27;5.60;;;;;;;;;;5099181;28;20033;-76
2022/09/05 04:57:13;;;;;;;;;;;;;;;;;;5095160;28;20048;-73
2022/09/05 04:59:41;;;;;;;10.68;5.43;;;;;;;;;;5095510;28;43898;-74
2022/09/05 05:02:39;;;;;;;7.15;4.93;;;;;;;;;;5096017;28;20049;-73
2022/09/05 05:05:32;;;;;;;10.68;5.90;;;;;;;;;;5095799;28;20045;-73
2022/09/05 05:08:25;;;;;;;7.97;5.90;;;;;;;;;;5101356;28;20041;-73
2022/09/05 05:11:09;;;;;;;8.27;5.45;;;;;;;;;;5102709;28;20271;-74
2022/09/05 05:14:16;;;;;;;8.82;5.60;;;;;;;;;;5098234;28;20104;-75
2022/09/05 05:17:09;;;;;;;17.50;5.70;;;;;;;;;;5099433;28;20060;-75
2022/09/05 05:20:08;;;;;;;7.70;5.23;;;;;;;;;;5100422;28;20136;-73
2022/09/05 05:22:59;;;;;;;11.25;5.95;;;;;;;;;;5098473;28;20051;-74
2022/09/05 05:25:41;;;;;;;16.27;5.25;;;;;;;;;;5098875;28;20960;-74
2022/09/05 05:28:12;;;;;;;13.25;5.70;;;;;;;;;;5099053;28;20053;-73
2022/09/05 05:30:51;;;;;;;9.05;5.45;;;;;;;;;;5096995;28;20410;-74
2022/09/05 05:33:29;;;;;;;12.32;5.82;;;;;;;;;;5097130;28;20056;-73
2022/09/05 05:35:58;;;;;;;11.88;5.22;;;;;;;;;;5091537;28;20088;-74
2022/09/05 05:38:28;;;;;;;7.80;5.55;;;;;;;;;;5095375;28;20041;-75
2022/09/05 05:41:10;;;;;;;7.15;5.20;;;;;;;;;;5093165;28;20055;-75
2022/09/05 05:43:39;;;;;;;9.93;5.82;;;;;;;;;;5107101;28;21473;-74
2022/09/05 05:46:15;;;;;;;9.40;5.60;;;;;;;;;;5100260;28;20036;-74
2022/09/05 05:48:44;;;;;;;14.57;5.88;;;;;;;;;;5101322;28;20041;-75
2022/09/05 05:51:23;;;;;;;14.23;6.70;;;;;;;;;;5100255;28;20059;-74
2022/09/05 05:54:16;;;;;;;12.70;6.38;;;;;;;;;;5095420;28;20048;-73
2022/09/05 05:56:52;;;;;;;7.78;6.22;;;;;;;;;;5100777;28;20057;-74
2022/09/05 05:59:22;;;;;;;13.15;6.43;;;;;;;;;;5100117;28;20023;-73
2022/09/05 06:02:09;;;;;;;13.30;6.53;;;;;;;;;;5099473;28;20041;-73
2022/09/05 06:04:46;;;;;;;15.10;7.07;;;;;;;;;;5095420;28;20070;-73
2022/09/05 06:07:33;;;;;;;10.30;6.00;;;;;;;;;;5084541;28;20045;-75
2022/09/05 06:10:23;;;;;;;13.95;6.78;;;;;;;;;;5105132;28;20040;-73
2022/09/05 06:13:10;;;;;;;15.90;6.85;;;;;;;;;;5099558;28;20055;-74
2022/09/05 06:16:18;;;;;;;11.60;6.78;;;;;;;;;;5099943;28;20033;-75
2022/09/05 06:19:09;;;;;;;13.63;7.22;;;;;;;;;;5102703;28;20067;-74
2022/09/05 06:21:50;;;;;;;10.13;6.88;;;;;;;;;;5105500;28;21377;-75
2022/09/05 06:24:54;;;;;;;11.02;7.07;;;;;;;;;;5112238;28;20054;-74
2022/09/05 06:27:51;;;;;;;14.70;7.57;;;;;;;;;;5109460;28;20071;-75
2022/09/05 06:30:44;;;;;;;12.55;7.70;;;;;;;;;;5107276;28;20037;-74
2022/09/05 06:33:24;;;;;;;14.77;7.88;;;;;;;;;;5107056;28;20043;-74
2022/09/05 06:36:06;;;;;;;14.70;8.60;;;;;;;;;;5110033;28;20037;-75
2022/09/05 06:38:44;;;;;;;16.27;8.50;;;;;;;;;;5104496;28;20443;-75
2022/09/05 06:41:20;;;;;;;12.52;7.72;;;;;;;;;;5106729;28;20075;-75
2022/09/05 06:44:07;;;;;;;10.90;7.15;;;;;;;;;;5103064;28;20028;-76
2022/09/05 06:46:35;;;;;;;12.07;7.70;;;;;;;;;;5106207;28;20100;-74
2022/09/05 06:49:26;;;;;;;11.57;7.60;;;;;;;;;;5099822;28;20048;-74
2022/09/05 06:52:03;;;;;;;11.27;8.25;;;;;;;;;;5109243;28;20048;-75
2022/09/05 06:55:10;;;;;;;13.05;8.30;;;;;;;;;;5103772;28;20032;-75
2022/09/05 06:57:56;;;;;;;13.52;8.00;;;;;;;;;;5103735;28;20495;-74
2022/09/05 07:00:29;;;;;;;14.25;7.80;;;;;;;;;;5087471;28;20041;-73
2022/09/05 07:03:18;;;;;;;12.73;7.65;;;;;;;;;;5099331;28;20056;-75
2022/09/05 07:05:58;;;;;;;15.52;9.38;;;;;;;;;;5100207;28;20050;-74
2022/09/05 07:08:44;;;;;;;15.73;9.05;;;;;;;;;;5097086;28;20045;-75
2022/09/05 07:11:19;;;;;;;17.77;10.45;;;;;;;;;;5097672;28;20051;-73
2022/09/05 07:13:46;;;;;;;14.02;9.88;;;;;;;;;;5102548;28;20044;-73
2022/09/05 07:16:19;;;;;;;16.90;11.57;;;;;;;;;;5095518;28;20108;-73
2022/09/05 07:19:13;;;;;;;14.52;10.60;;;;;;;;;;5096734;28;20061;-76
2022/09/05 07:21:40;;;;;;;16.85;11.15;;;;;;;;;;5098206;28;20056;-73
2022/09/05 07:24:18;;;;;;;17.20;12.30;;;;;;;;;;5096343;28;20112;-71
2022/09/05 07:27:06;;;;;;;20.95;12.80;;;;;;;;;;5104410;28;20067;-74
2022/09/05 07:29:40;;;;;;;16.98;11.40;;;;;;;;;;5100551;28;20048;-74
2022/09/05 07:32:28;;;;;;;14.52;11.45;;;;;;;;;;5106647;28;20056;-74
2022/09/05 07:34:57;;;;;;;17.88;12.05;;;;;;;;;;5104965;28;20049;-74
2022/09/05 07:37:27;;;;;;;22.10;11.38;;;;;;;;;;5105229;28;20080;-73
2022/09/05 07:39:58;;;;;;;16.17;10.73;;;;;;;;;;5104006;28;20058;-74
2022/09/05 07:42:53;;;;;;;18.08;10.45;;;;;;;;;;5100694;28;20045;-73
2022/09/05 07:45:37;;;;;;;16.05;10.20;;;;;;;;;;5102847;28;20056;-73
2022/09/05 07:48:21;;;;;;;17.27;9.90;;;;;;;;;;5097829;28;20052;-74
2022/09/05 07:51:02;;;;;;;13.82;9.10;;;;;;;;;;5101967;28;20049;-74
2022/09/05 07:53:52;;;;;;;12.73;7.88;;;;;;;;;;5092139;28;20053;-73
2022/09/05 07:56:42;;;;;;;15.52;8.20;;;;;;;;;;5105002;28;20053;-74
2022/09/05 07:59:33;;;;;;;16.88;6.97;;;;;;;;;;5101600;28;20041;-73
2022/09/05 08:02:01;;;;;;;9.30;5.32;;;;;;;;;;5099678;28;20053;-74
2022/09/05 08:04:30;;;;;;;11.52;4.88;;;;;;;;;;5102422;28;20044;-73
2022/09/05 08:07:04;;;;;;;12.65;5.28;;;;;;;;;;5104394;28;20048;-76
2022/09/05 08:09:54;;;;;;;11.13;5.03;;;;;;;;;;5105138;28;20582;-73
2022/09/05 08:12:56;;;;;;;6.20;4.55;;;;;;;;;;5105114;28;20939;-73
2022/09/05 08:15:48;;;;;;;6.78;3.88;;;;;;;;;;5101263;28;20059;-74
2022/09/05 08:18:44;;;;;;;7.13;2.53;;;;;;;;;;5104646;28;20104;-72
2022/09/05 08:21:44;;;;;;;5.10;2.83;;;;;;;;;;5102439;28;20037;-73
2022/09/05 08:24:31;;;;;;;5.47;2.88;;;;;;;;;;5071456;28;20066;-73
2022/09/05 08:27:05;;;;;;;5.53;2.17;;;;;;;;;;5104221;28;20831;-72
2022/09/05 08:29:43;;;;;;;4.28;1.95;;;;;;;;;;5101351;28;20044;-73
2022/09/05 08:32:16;;;;;;;6.18;2.00;;;;;;;;;;5105352;28;20033;-73
2022/09/05 08:34:43;;;;;;;;;;;;;;;;;;5100283;28;20058;-73
2022/09/05 08:37:15;;;;;;;2.70;1.80;;;;;;;;;;5098602;28;44089;-73
2022/09/05 08:39:56;;;;;;;2.78;1.98;;;;;;;;;;5099751;28;20057;-73
2022/09/05 08:42:40;;;;;;;4.88;2.08;;;;;;;;;;5098340;28;20477;-73
2022/09/05 08:45:32;;;;;;;4.90;2.05;;;;;;;;;;5103206;28;20052;-72
2022/09/05 08:48:19;;;;;;;4.22;2.33;;;;;;;;;;5102919;28;20049;-74
2022/09/05 08:50:53;;;;;;;5.10;2.38;;;;;;;;;;5103319;28;20032;-73
2022/09/05 08:53:23;;;;;;;5.40;2.20;;;;;;;;;;5106287;28;20035;-74
2022/09/05 08:56:18;;;;;;;4.47;2.20;;;;;;;;;;5101554;28;20044;-72
2022/09/05 08:58:56;;;;;;;3.83;2.03;;;;;;;;;;5101520;28;20048;-73
2022/09/05 09:01:52;;;;;;;6.85;2.08;;;;;;;;;;5097118;28;20053;-73
2022/09/05 09:04:52;;;;;;;5.15;2.10;;;;;;;;;;5104235;28;20048;-73
2022/09/05 09:07:31;;;;;;;4.40;2.30;;;;;;;;;;5107076;28;20052;-75
2022/09/05 09:10:33;;;;;;;4.47;2.20;;;;;;;;;;5104413;28;20061;-73
2022/09/05 09:13:21;;;;;;;8.75;2.10;;;;;;;;;;5103730;28;20096;-73
2022/09/05 09:16:06;;;;;;;5.97;2.25;;;;;;;;;;5102663;28;20067;-74
2022/09/05 09:18:57;;;;;;;8.10;2.45;;;;;;;;;;5105550;28;20037;-73
2022/09/05 09:21:43;;;;;;;6.95;2.22;;;;;;;;;;5093459;28;20063;-73
2022/09/05 09:24:16;;;;;;;3.03;1.80;;;;;;;;;;5103904;28;20077;-72
2022/09/05 09:26:51;;;;;;;3.83;1.92;;;;;;;;;;5110089;28;20040;-73
2022/09/05 09:29:18;;;;;;;2.80;1.58;;;;;;;;;;5103643;28;20757;-72
2022/09/05 09:31:57;;;;;;;6.95;2.10;;;;;;;;;;5098148;28;20040;-74
2022/09/05 09:34:24;;;;;;;3.95;1.98;;;;;;;;;;5101943;28;20040;-73
2022/09/05 09:37:00;;;;;;;2.85;1.70;;;;;;;;;;5102040;28;20059;-73
2022/09/05 09:39:30;;;;;;;7.43;1.95;;;;;;;;;;5100045;28;20052;-74
2022/09/05 09:42:08;;;;;;;7.03;2.33;;;;;;;;;;5101971;28;20757;-74
2022/09/05 09:44:51;;;;;;;3.28;1.88;;;;;;;;;;5100224;28;20112;-73
2022/09/05 09:47:31;;;;;;;4.45;1.73;;;;;;;;;;5099426;28;20025;-73
2022/09/05 09:50:19;;;;;;;4.60;1.92;;;;;;;;;;5099528;28;20047;-75
2022/09/05 09:52:52;;;;;;;4.60;1.70;;;;;;;;;;5105181;28;20199;-74
2022/09/05 09:55:38;;;;;;;3.35;1.70;;;;;;;;;;5102884;28;20036;-75
2022/09/05 09:58:17;;;;;;;4.38;1.60;;;;;;;;;;5089339;28;20040;-74
2022/09/05 10:00:56;;;;;;;4.35;1.60;;;;;;;;;;5104349;28;20033;-72
2022/09/05 10:03:34;;;;;;;6.28;1.50;;;;;;;;;;5103661;28;20101;-74
2022/09/05 10:06:27;;;;;;;8.57;1.73;;;;;;;;;;5102553;28;20036;-73
2022/09/05 10:09:14;;;;;;;;;;;;;;;;;;5106048;28;20043;-73
2022/09/05 10:12:04;;;;;;;3.53;1.30;;;;;;;;;;5107303;28;19920;-74
2022/09/05 10:14:54;;;;;;;3.60;1.65;;;;;;;;;;5101772;28;20045;-73
2022/09/05 10:17:24;;;;;;;3.42;1.65;;;;;;;;;;5097996;28;20102;-72
2022/09/05 10:20:05;;;;;;;5.20;1.60;;;;;;;;;;5100590;28;20044;-73
2022/09/05 10:22:55;;;;;;;4.05;1.50;;;;;;;;;;5098220;28;20048;-73
2022/09/05 10:25:22;;;;;;;6.95;1.42;;;;;;;;;;5098158;28;20048;-72
2022/09/05 10:27:59;;;;;;;2.50;1.40;;;;;;;;;;5095087;28;20059;-72
2022/09/05 10:30:47;;;;;;;3.58;1.38;;;;;;;;;;5098657;28;20083;-73
2022/09/05 10:33:37;;;;;;;2.10;1.45;;;;;;;;;;5099140;28;20805;-74
2022/09/05 10:36:28;;;;;;;2.17;1.35;;;;;;;;;;5098257;28;20741;-72
2022/09/05 10:38:59;;;;;;;2.72;1.48;;;;;;;;;;5102668;28;20067;-73
2022/09/05 10:41:38;;;;;;;2.08;1.40;;;;;;;;;;5097848;28;20053;-73
2022/09/05 10:44:06;;;;;;;4.03;1.33;;;;;;;;;;5099559;28;20051;-73
2022/09/05 10:46:56;;;;;;;1.88;1.02;;;;;;;;;;5093827;28;20040;-72
2022/09/05 10:49:26;;;;;;;4.63;1.20;;;;;;;;;;5089629;28;20044;-72
2022/09/05 10:52:32;;;;;;;3.42;1.48;;;;;;;;;;5098785;28;20088;-73
2022/09/05 10:54:59;;;;;;;;;;;;;;;;;;5055449;28;20045;-74
2022/09/05 10:57:45;;;;;;;7.72;1.15;;;;;;;;;;5051073;28;42621;-72
2022/09/05 11:00:33;;;;;;;5.22;1.23;;;;;;;;;;5058627;28;20040;-76
2022/09/05 11:03:31;;;;;;;2.25;1.10;;;;;;;;;;5058950;28;20057;-75
2022/09/05 11:06:01;;;;;;;6.03;1.38;;;;;;;;;;5059345;28;20136;-74
2022/09/05 11:08:40;;;;;;;5.75;1.38;;;;;;;;;;5061564;28;20041;-74
2022/09/05 11:11:17;;;;;;;2.60;1.35;;;;;;;;;;5060614;28;20076;-73
2022/09/05 11:14:03;;;;;;;4.30;1.33;;;;;;;;;;5059409;28;20080;-73
2022/09/05 11:16:33;;;;;;;3.90;1.25;;;;;;;;;;5063284;28;20105;-72
2022/09/05 11:19:12;;;;;;;3.92;1.60;;;;;;;;;;5062361;28;20046;-72
2022/09/05 11:22:00;;;;;;;5.85;1.50;;;;;;;;;;5062927;28;20038;-73
2022/09/05 11:24:56;;;;;;;2.92;1.42;;;;;;;;;;5062558;28;20049;-73
2022/09/05 11:27:29;;;;;;;1.88;1.30;;;;;;;;;;5059014;28;20042;-71
2022/09/05 11:30:01;;;;;;;2.55;1.45;;;;;;;;;;5095809;28;20171;-73
2022/09/05 11:32:37;;;;;;;3.63;1.60;;;;;;;;;;5102107;28;20052;-73
2022/09/05 11:35:26;;;;;;;2.25;1.40;;;;;;;;;;5104184;28;20216;-74
2022/09/05 11:38:24;;;;;;;2.85;1.40;;;;;;;;;;5101790;28;20044;-71
2022/09/05 11:41:17;;;;;;;3.80;1.40;;;;;;;;;;5077120;28;24568;-73
2022/09/05 11:43:45;;;;;;;2.20;1.20;;;;;;;;;;5082610;28;20049;-74
2022/09/05 11:46:12;;;;;;;3.30;1.58;;;;;;;;;;5077120;28;20051;-73
2022/09/05 11:48:58;;;;;;;2.50;1.35;;;;;;;;;;5080572;28;20938;-73
2022/09/05 11:51:41;;;;;;;3.80;1.50;;;;;;;;;;5078484;28;20050;-74
2022/09/05 11:54:08;;;;;;;;;;;;;;;;;;5082151;28;20056;-74
2022/09/05 11:56:54;;;;;;;3.67;1.50;;;;;;;;;;5079001;28;45041;-73
2022/09/05 12:00:00;;;;;;;3.20;2.00;;;;;;;;;;5079676;28;20041;-73
2022/09/05 12:02:48;;;;;;;5.70;1.95;;;;;;;;;;5083448;28;20055;-73
2022/09/05 12:05:36;;;;;;;2.72;1.60;;;;;;;;;;5083322;28;20056;-74
2022/09/05 12:08:34;;;;;;;2.45;1.40;;;;;;;;;;5081763;28;20041;-73
2022/09/05 12:11:07;;;;;;;7.50;1.80;;;;;;;;;;5080911;28;20073;-72
2022/09/05 12:13:49;;;;;;;2.88;1.40;;;;;;;;;;5084336;28;20108;-74
2022/09/05 12:16:17;;;;;;;;;;;;;;;;;;5082931;28;20069;-73
2022/09/05 12:19:03;;;;;;;6.13;1.75;;;;;;;;;;5082510;28;43288;-73
2022/09/05 12:22:04;;;;;;;4.45;1.70;;;;;;;;;;5083721;28;20048;-74
2022/09/05 12:25:02;;;;;;;7.03;1.60;;;;;;;;;;5086116;28;20938;-71
2022/09/05 12:27:58;;;;;;;2.85;1.60;;;;;;;;;;5085624;28;20037;-72
2022/09/05 12:30:46;;;;;;;7.20;2.00;;;;;;;;;;5082843;28;20061;-73
2022/09/05 12:33:33;;;;;;;2.83;1.52;;;;;;;;;;5083034;28;20113;-75
2022/09/05 12:36:42;;;;;;;3.90;1.70;;;;;;;;;;5088035;28;20549;-74
2022/09/05 12:39:35;;;;;;;4.78;1.65;;;;;;;;;;5083427;28;20041;-74
2022/09/05 12:42:39;;;;;;;2.70;1.52;;;;;;;;;;5083817;28;20049;-73
2022/09/05 12:45:31;;;;;;;3.13;1.70;;;;;;;;;;5087237;28;21046;-73
2022/09/05 12:48:09;;;;;;;7.13;1.80;;;;;;;;;;5079300;28;20875;-74
2022/09/05 12:51:14;;;;;;;8.68;1.80;;;;;;;;;;5085101;28;20041;-72
2022/09/05 12:54:08;;;;;;;3.03;1.70;;;;;;;;;;5041417;28;20229;-72
2022/09/05 12:56:59;;;;;;;6.60;1.70;;;;;;;;;;5043009;28;20053;-73
2022/09/05 12:59:47;;;;;;;3.97;1.80;;;;;;;;;;5041262;28;20056;-72
2022/09/05 13:02:35;;;;;;;4.50;1.73;;;;;;;;;;5043368;28;20069;-75
2022/09/05 13:05:25;;;;;;;2.85;1.70;;;;;;;;;;5044258;28;20051;-74
2022/09/05 13:07:57;;;;;;;5.20;1.70;;;;;;;;;;5049481;28;20045;-75
2022/09/05 13:10:32;;;;;;;4.70;1.63;;;;;;;;;;5047397;28;20049;-74
2022/09/05 13:13:30;;;;;;;4.95;1.65;;;;;;;;;;5042723;28;20057;-73
2022/09/05 13:16:19;;;;;;;4.15;1.80;;;;;;;;;;5045858;28;20049;-74
2022/09/05 13:18:51;;;;;;;7.22;1.60;;;;;;;;;;5045486;28;20046;-73
2022/09/05 13:21:18;;;;;;;4.82;1.65;;;;;;;;;;5041935;28;20046;-74
2022/09/05 13:24:03;;;;;;;4.47;1.63;;;;;;;;;;5044001;28;20046;-73
2022/09/05 13:26:35;;;;;;;3.42;1.60;;;;;;;;;;5047548;28;20106;-75
2022/09/05 13:29:19;;;;;;;3.97;1.67;;;;;;;;;;5086921;28;20033;-74
2022/09/05 13:31:52;;;;;;;2.83;1.60;;;;;;;;;;5078712;28;20120;-75
2022/09/05 13:34:42;;;;;;;6.32;1.70;;;;;;;;;;5080503;28;20052;-75
2022/09/05 13:37:34;;;;;;;5.05;1.65;;;;;;;;;;5085335;28;20049;-74
2022/09/05 13:40:26;;;;;;;5.00;1.65;;;;;;;;;;5083962;28;20070;-74
2022/09/05 13:43:09;;;;;;;5.90;1.63;;;;;;;;;;5084359;28;20618;-73
2022/09/05 13:45:52;;;;;;;3.00;1.60;;;;;;;;;;5078040;28;20065;-74
2022/09/05 13:48:25;;;;;;;4.60;1.83;;;;;;;;;;5080740;28;20038;-76
2022/09/05 13:50:58;;;;;;;9.63;1.73;;;;;;;;;;5080444;28;20041;-73
2022/09/05 13:53:26;;;;;;;3.38;1.70;;;;;;;;;;5079368;28;20076;-74
2022/09/05 13:55:57;;;;;;;5.15;1.67;;;;;;;;;;5084332;28;20112;-73
2022/09/05 13:58:48;;;;;;;8.25;2.00;;;;;;;;;;5082507;28;20052;-74
2022/09/05 14:01:29;;;;;;;2.30;1.40;;;;;;;;;;5087411;28;20045;-72
2022/09/05 14:04:10;;;;;;;4.60;1.40;;;;;;;;;;5083619;28;20049;-74
2022/09/05 14:06:50;;;;;;;7.57;1.80;;;;;;;;;;5088266;28;20136;-73
2022/09/05 14:09:18;;;;;;;4.68;1.90;;;;;;;;;;5083765;28;20064;-72
2022/09/05 14:12:28;;;;;;;5.70;1.73;;;;;;;;;;5081953;28;20041;-74
2022/09/05 14:15:16;;;;;;;5.57;1.55;;;;;;;;;;5081498;28;20045;-72
2022/09/05 14:17:53;;;;;;;7.78;1.40;;;;;;;;;;5084393;28;20044;-74
2022/09/05 14:23:17;;;;;;;16.98;1.70;;;;;;;;;;5081710;28;20049;-74
2022/09/05 14:25:48;;;;;;;4.18;1.80;;;;;;;;;;5083363;28;20047;-74
2022/09/05 14:28:23;;;;;;;3.63;1.60;;;;;;;;;;5084219;28;20042;-72
2022/09/05 14:30:53;;;;;;;3.63;1.60;;;;;;;;;;5084653;28;20053;-75
2022/09/05 14:33:54;;;;;;;5.18;1.85;;;;;;;;;;5080611;28;20053;-73
2022/09/05 14:37:13;;;;;;;4.88;1.48;;;;;;;;;;5080421;28;20889;-74
2022/09/05 14:40:15;;;;;;;3.45;1.40;;;;;;;;;;5081910;28;20048;-74
2022/09/05 14:43:05;;;;;;;5.80;1.52;;;;;;;;;;5079720;28;20033;-74
2022/09/05 14:45:42;;;;;;;7.03;1.77;;;;;;;;;;5077080;28;20077;-73
2022/09/05 14:48:29;;;;;;;6.45;1.70;;;;;;;;;;5079309;28;20064;-73
2022/09/05 14:51:02;;;;;;;3.55;1.70;;;;;;;;;;5081651;28;20100;-72
2022/09/05 14:53:30;;;;;;;6.65;1.60;;;;;;;;;;5092988;28;20097;-73
2022/09/05 14:56:19;;;;;;;7.00;1.80;;;;;;;;;;5082501;28;20053;-74
2022/09/05 14:59:15;;;;;;;5.00;1.77;;;;;;;;;;5081221;28;20053;-74
2022/09/05 15:02:02;;;;;;;6.25;1.77;;;;;;;;;;5082623;28;20051;-72
2022/09/05 15:05:14;;;;;;;3.67;1.77;;;;;;;;;;5079724;28;20037;-75
2022/09/05 15:07:46;;;;;;;3.60;1.70;;;;;;;;;;5061525;28;20068;-73
2022/09/05 15:10:17;;;;;;;4.17;1.70;;;;;;;;;;5063267;28;20048;-75
2022/09/05 15:13:12;;;;;;;4.75;1.60;;;;;;;;;;5060866;28;20054;-73
2022/09/05 15:15:43;;;;;;;3.20;1.70;;;;;;;;;;5060753;28;20064;-73
2022/09/05 15:18:18;;;;;;;4.75;1.80;;;;;;;;;;5044245;28;20111;-75
2022/09/05 15:20:47;;;;;;;5.47;2.00;;;;;;;;;;5059801;28;20049;-75
2022/09/05 15:23:23;;;;;;;5.30;1.55;;;;;;;;;;5060884;28;20044;-73
2022/09/05 15:26:00;;;;;;;10.50;1.75;;;;;;;;;;5065376;28;20041;-73
2022/09/05 15:28:35;;;;;;;1.77;1.30;;;;;;;;;;5056450;28;20049;-72
2022/09/05 15:31:06;;;;;;;3.03;1.75;;;;;;;;;;5059634;28;20056;-73
2022/09/05 15:33:35;;;;;;;3.00;1.43;;;;;;;;;;5061762;28;20052;-73
2022/09/05 15:36:03;;;;;;;3.28;1.60;;;;;;;;;;5056879;28;20308;-74
2022/09/05 15:38:33;;;;;;;5.18;1.60;;;;;;;;;;5052329;28;20045;-74
2022/09/05 15:41:29;;;;;;;6.63;1.60;;;;;;;;;;5055353;28;20045;-73
2022/09/05 15:44:05;;;;;;;3.97;1.83;;;;;;;;;;5056969;28;20132;-72
2022/09/05 15:46:58;;;;;;;7.80;1.65;;;;;;;;;;5073471;28;20045;-75
2022/09/05 15:49:25;;;;;;;3.88;1.60;;;;;;;;;;5083249;28;20108;-73
2022/09/05 15:51:56;;;;;;;2.50;1.48;;;;;;;;;;5077719;28;20850;-73
2022/09/05 15:54:29;;;;;;;5.25;1.50;;;;;;;;;;5076917;28;20029;-73
2022/09/05 15:57:07;;;;;;;6.80;1.83;;;;;;;;;;5080210;28;20056;-73
2022/09/05 15:59:47;;;;;;;4.35;1.77;;;;;;;;;;5075265;28;20053;-72
2022/09/05 16:02:20;;;;;;;8.35;1.95;;;;;;;;;;5080349;28;20059;-73
2022/09/05 16:05:08;;;;;;;3.03;1.73;;;;;;;;;;5079878;28;20041;-73
2022/09/05 16:07:55;;;;;;;6.25;1.58;;;;;;;;;;5079316;28;20057;-74
2022/09/05 16:10:42;;;;;;;2.90;1.60;;;;;;;;;;5086427;28;20049;-72
2022/09/05 16:13:29;;;;;;;4.47;1.70;;;;;;;;;;5081964;28;20052;-74
2022/09/05 16:16:17;;;;;;;5.18;2.00;;;;;;;;;;5080039;28;20029;-72